• Join FlightAware (Why Join?)
  • Login
  • US Flag 
05:12AM EDT


 

Airport Tracker/Info


-or-


 

Live Flight TrackerFlight Track Log ✈ N59CW ✈ 13-Apr-2014 ✈ KABY - KPIE

Flight Track Log - Related Links

Times and Time Zones

All times are in EDT time to prevent confusion due to time zone crossing. See the N59CW flight status page for this flight to view local times or setup timezone preferences in your user account.

Time Position Orientation Groundspeed Altitude Reporting Facility
EDT Latitude Longitude Course Direction KTS MPH feet Rate Location/Type
02:19PM 31.4573 -84.1716 166° South  Level FlightAware Approximate
02:20PM 31.4181 -84.1601 166° South  Level FlightAware Approximate
02:21PM 31.3747 -84.1500 180° South  Level FlightAware Approximate
02:23PM 31.5167 -84.1939 180° South 145 167 1,000  Level Jacksonville Center
02:24PM 31.4917 -84.1961 184° South 118 136 1,700 720 Climbing Jacksonville Center
02:25PM 31.4686 -84.1981 184° South 101 116 2,500 720 Climbing Jacksonville Center
02:26PM 31.4458 -84.1881 159° South 91 105 3,200 600 Climbing Jacksonville Center
02:27PM 31.4250 -84.1756 153° Southeast 86 99 3,800 840 Climbing Jacksonville Center
02:28PM 31.3981 -84.1703 171° South 86 99 4,900 660 Climbing Jacksonville Center
02:29PM 31.3753 -84.1581 155° Southeast 91 105 5,200 120 Climbing Jacksonville Center
02:30PM 31.3417 -84.1575 179° South 123 142 5,200 60 Level Jacksonville Center
02:30PM 31.3356 -84.1550 161° South 123 142 5,300 -120 Climbing Jacksonville Center
02:31PM 31.3022 -84.1375 156° South 127 146 5,100 -60 Descending Jacksonville Center
02:32PM 31.2794 -84.1203 147° Southeast 121 139 5,200  Climbing Jacksonville Center
02:33PM 31.2483 -84.1053 158° South 127 146 5,200  Level Jacksonville Center
02:34PM 31.2150 -84.0903 159° South 127 146 5,200 -120 Level Jacksonville Center
02:34PM 31.2067 -84.0875 164° South 125 144 5,100 -120 Descending Jacksonville Center
02:35PM 31.1839 -84.0753 155° Southeast 127 146 5,100  Level Jacksonville Center
02:35PM 31.1756 -84.0703 153° Southeast 125 144 5,100  Level Jacksonville Center
02:36PM 31.1528 -84.0603 159° South 127 146 5,100  Level Jacksonville Center
02:36PM 31.1422 -84.0553 158° South 124 143 5,100 60 Level Jacksonville Center
02:37PM 31.1217 -84.0428 152° Southeast 127 146 5,200 60 Climbing Jacksonville Center
02:37PM 31.1153 -84.0381 148° Southeast 119 137 5,200 -120 Level Jacksonville Center
02:38PM 31.0883 -84.0328 170° South 127 146 5,100 -120 Descending Jacksonville Center
02:38PM 31.0778 -84.0278 158° South 125 144 5,100  Level Jacksonville Center
02:39PM 31.0569 -84.0178 158° South 127 146 5,100  Level Jacksonville Center
02:39PM 31.0444 -84.0128 161° South 125 144 5,100 60 Level Jacksonville Center
02:40PM 31.0133 -83.9956 155° Southeast 124 143 5,200  Climbing Jacksonville Center
02:41PM 30.9844 -83.9783 153° Southeast 122 140 5,200  Level Jacksonville Center
02:55PM 30.5578 -83.7853 148° Southeast 121 139 5,200 -60 Level Jacksonville Center
02:56PM 30.5278 -83.7506 148° Southeast  Level FlightAware Approximate
02:56PM 30.5244 -83.7631 150° Southeast 127 146 5,000  Level Jacksonville Center
02:57PM 30.4984 -83.7292 148° Southeast  Level FlightAware Approximate
02:57PM 30.4933 -83.7508 161° South 122 140 5,100  Level Jacksonville Center
02:58PM 30.4689 -83.7079 148° Southeast  Level FlightAware Approximate
02:58PM 30.4600 -83.7289 150° Southeast 132 152 5,200  Level Jacksonville Center
02:59PM 30.4395 -83.6867 148° Southeast  Level FlightAware Approximate
02:59PM 30.4353 -83.7044 140° Southeast 120 138 5,100  Level Jacksonville Center
03:00PM 30.4100 -83.6654 148° Southeast  Level FlightAware Approximate
03:00PM 30.4144 -83.6803 135° Southeast 120 138 5,100  Level Jacksonville Center
03:01PM 30.3875 -83.6608 148° Southeast 125 144 5,000  Descending Jacksonville Center
03:02PM 30.3561 -83.6364 146° Southeast 130 150 5,100  Climbing Jacksonville Center
03:03PM 30.3272 -83.6144 147° Southeast 130 150 5,100  Level Jacksonville Center
03:04PM 30.2981 -83.5928 147° Southeast 124 143 5,100 60 Level Jacksonville Center
03:05PM 30.2753 -83.5708 140° Southeast 124 143 5,300 480 Climbing Jacksonville Center
03:06PM 30.2522 -83.5467 138° Southeast 119 137 6,100 720 Climbing Jacksonville Center
03:07PM 30.2314 -83.5319 149° Southeast 112 129 6,800 540 Climbing Jacksonville Center
03:08PM 30.2086 -83.5200 156° South 100 115 7,200 180 Climbing Jacksonville Center
03:09PM 30.1817 -83.4958 142° Southeast 105 121 7,200  Level Jacksonville Center
03:10PM 30.1544 -83.4739 145° Southeast 110 127 7,200  Level Jacksonville Center
03:11PM 30.1253 -83.4569 153° Southeast 115 132 7,200 -120 Level Jacksonville Center
03:12PM 30.1006 -83.4353 143° Southeast 120 138 7,000 -60 Descending Jacksonville Center
03:13PM 30.0756 -83.4133 143° Southeast 120 138 7,100 60 Climbing Jacksonville Center
03:14PM 30.0506 -83.3869 138° Southeast 125 144 7,200  Climbing Jacksonville Center
03:15PM 30.0233 -83.3675 148° Southeast 120 138 7,200  Level Jacksonville Center
03:16PM 29.9900 -83.3553 162° South 120 138 7,200  Level Jacksonville Center
03:17PM 29.9650 -83.3336 143° Southeast 114 131 7,200  Level Jacksonville Center
03:18PM 29.9403 -83.3072 137° Southeast 114 131 7,200 -60 Level Jacksonville Center
03:19PM 29.9131 -83.2953 159° South 114 131 7,100 -60 Descending Jacksonville Center
03:20PM 29.8881 -83.2806 153° Southeast 114 131 7,100  Level Jacksonville Center
03:21PM 29.8694 -83.2542 129° Southeast 109 125 7,200  Climbing Jacksonville Center
03:22PM 29.8444 -83.2325 143° Southeast 109 125 7,200  Level Jacksonville Center
03:23PM 29.8172 -83.2133 149° Southeast 109 125 7,200  Level Jacksonville Center
03:24PM 29.7922 -83.1942 146° Southeast 109 125 7,200  Level Jacksonville Center
03:25PM 29.7653 -83.1700 142° Southeast 114 131 7,200  Level Jacksonville Center
03:26PM 29.7381 -83.1508 149° Southeast 120 138 7,200 -60 Level Jacksonville Center
03:27PM 29.7089 -83.1317 150° Southeast 120 138 7,100  Descending Jacksonville Center
03:28PM 29.6797 -83.1125 150° Southeast 120 138 7,200  Climbing Jacksonville Center
03:29PM 29.6547 -83.0908 143° Southeast 120 138 7,200 -60 Level Jacksonville Center
03:30PM 29.6233 -83.0717 152° Southeast 120 138 7,100  Descending Jacksonville Center
03:30PM 29.5961 -83.0525 149° Southeast 123 142 7,200 60 Climbing Jacksonville Center
03:31PM 29.5961 -83.0503 90° East 120 138 7,200  Level Jacksonville Center
03:31PM 29.5711 -83.0333 149° Southeast 119 137 7,200  Level Jacksonville Center
03:32PM 29.5692 -83.0286 115° Southeast 120 138 7,200  Level Jacksonville Center
03:32PM 29.5358 -83.0167 163° South 129 148 7,200 -60 Level Jacksonville Center
03:33PM 29.5067 -82.9928 145° Southeast 125 144 7,100  Descending Jacksonville Center
03:34PM 29.4794 -82.9714 146° Southeast 121 139 7,200  Climbing Jacksonville Center
03:35PM 29.4481 -82.9497 149° Southeast 123 142 7,100 -60 Descending Jacksonville Center
03:36PM 29.4167 -82.9331 155° Southeast 122 140 7,100  Level Jacksonville Center
03:37PM 29.3875 -82.9117 147° Southeast 116 133 7,100  Level Jacksonville Center
03:39PM 29.3625 -82.8950 150° Southeast 120 138 7,100  Level Jacksonville Center
03:40PM 29.3292 -82.8758 153° Southeast 121 139 7,100  Level Jacksonville Center
03:41PM 29.2978 -82.8569 152° Southeast 126 145 7,100 -300 Level Jacksonville Center
03:42PM 29.2686 -82.8283 139° Southeast 126 145 6,500 -720 Descending Jacksonville Center
03:42PM 29.2414 -82.8117 152° Southeast 125 144 5,800 -600 Descending Jacksonville Center
03:44PM 29.2081 -82.7950 156° South 123 142 5,400 -360 Descending Jacksonville Center
03:45PM 29.1767 -82.7736 149° Southeast 125 144 5,100 -180 Descending Jacksonville Center
03:46PM 29.1475 -82.7569 153° Southeast 116 133 5,100  Level Jacksonville Center
03:47PM 29.1183 -82.7381 150° Southeast 112 129 5,200  Climbing Jacksonville Center
03:48PM 29.0847 -82.7311 170° South 124 143 5,100 -60 Descending Jacksonville Center
03:49PM 29.0536 -82.7217 165° South 123 142 5,100  Level Jacksonville Center
03:50PM 29.0222 -82.7144 169° South 114 131 5,200  Climbing Jacksonville Center
03:51PM 28.9889 -82.7097 173° South 120 138 5,200  Level Jacksonville Center
03:52PM 28.9492 -82.7028 171° South 130 150 5,200 -60 Level Jacksonville Center
03:53PM 28.9156 -82.6933 166° South 122 140 5,100 -60 Descending Jacksonville Center
03:54PM 28.8844 -82.6839 165° South 120 138 5,100  Level Jacksonville Center
03:55PM 28.8508 -82.6817 177° South 122 140 5,100 -60 Level Jacksonville Center
03:57PM 28.7833 -82.6667 169° South 124 143 5,000 -60 Descending Tampa TRACON
03:58PM 28.7500 -82.6667 180° South 121 139 5,000  Level Tampa TRACON
03:59PM 28.7167 -82.6500 156° South 122 140 5,000  Level Tampa TRACON
04:00PM 28.6833 -82.6500 180° South 132 152 5,000 -180 Level Tampa TRACON
04:01PM 28.6500 -82.6667 204° Southwest 125 144 4,700 -480 Descending Tampa TRACON
04:02PM 28.6000 -82.6667 180° South 130 150 4,100 -360 Descending Tampa TRACON
04:03PM 28.5667 -82.6833 204° Southwest 132 152 4,000  Descending Tampa TRACON
04:04PM 28.5333 -82.6833 180° South 127 146 4,100  Climbing Tampa TRACON
04:05PM 28.5000 -82.7000 204° Southwest 129 148 4,000 -120 Descending Tampa TRACON
04:06PM 28.4667 -82.7167 204° Southwest 127 146 3,900 -300 Descending Tampa TRACON
04:07PM 28.4333 -82.7333 204° Southwest 129 148 3,500 -480 Descending Tampa TRACON
04:08PM 28.4000 -82.7333 180° South 137 158 3,000 -240 Descending Tampa TRACON
04:09PM 28.3667 -82.7500 204° Southwest 126 145 3,100  Climbing Tampa TRACON
04:10PM 28.3333 -82.7500 180° South 127 146 3,100 -60 Level Tampa TRACON
04:11PM 28.3000 -82.7667 204° Southwest 129 148 3,000 -60 Descending Tampa TRACON
04:12PM 28.2500 -82.7833 196° South 126 145 3,000  Level Tampa TRACON
04:13PM 28.2167 -82.7833 180° South 124 143 3,100  Climbing Tampa TRACON
04:14PM 28.1833 -82.8000 204° Southwest 123 142 3,100 -60 Level Tampa TRACON
04:15PM 28.1500 -82.7833 156° South 127 146 3,000  Descending Tampa TRACON
04:16PM 28.1167 -82.7833 180° South 121 139 3,100 -60 Climbing Tampa TRACON
04:17PM 28.0833 -82.7833 180° South 129 148 2,900 -360 Descending Tampa TRACON
04:18PM 28.0500 -82.8000 204° Southwest 141 162 2,500 -480 Descending Tampa TRACON
04:19PM 28.0167 -82.8000 180° South 128 147 2,000 -360 Descending Tampa TRACON
04:20PM 27.9833 -82.7833 156° South 114 131 1,800 -480 Descending Tampa TRACON
04:21PM 27.9500 -82.7667 156° South 119 137 1,100 -480 Descending Tampa TRACON
04:22PM 27.9167 -82.7667 180° South 102 117 900 -240 Descending Tampa TRACON
04:23PM 27.9167 -82.7333 90° East 78 90 700 -240 Descending Tampa TRACON
04:24PM 27.9167 -82.7167 90° East 72 83 500 -240 Descending Tampa TRACON
04:29PM 27.9100 -82.6875 190° South  Level Estimated
04:36PM 27.9100 -82.6875 190° South  Level Estimated
04:37PM 27.9100 -82.6875 160° South  Level Estimated